sensor_id;sensor_type;location;lat;lon;timestamp;pressure;altitude;pressure_sealevel;temperature;humidity
2397;BME280;1209;48.410;9.054;2022-07-23T00:00:15;96338.66;;;22.82;100.00
2397;BME280;1209;48.410;9.054;2022-07-23T00:02:41;96314.19;;;22.85;100.00
2397;BME280;1209;48.410;9.054;2022-07-23T00:05:07;96297.50;;;22.95;100.00
2397;BME280;1209;48.410;9.054;2022-07-23T00:07:32;96281.94;;;23.13;100.00
2397;BME280;1209;48.410;9.054;2022-07-23T00:09:58;96279.78;;;23.42;100.00
2397;BME280;1209;48.410;9.054;2022-07-23T00:12:23;96256.41;;;23.54;100.00
2397;BME280;1209;48.410;9.054;2022-07-23T00:14:49;96258.13;;;23.66;100.00
2397;BME280;1209;48.410;9.054;2022-07-23T00:17:14;96262.59;;;23.60;100.00
2397;BME280;1209;48.410;9.054;2022-07-23T00:19:40;96258.25;;;23.49;100.00
2397;BME280;1209;48.410;9.054;2022-07-23T00:22:05;96235.91;;;23.18;100.00
2397;BME280;1209;48.410;9.054;2022-07-23T00:24:30;96227.72;;;23.30;100.00
2397;BME280;1209;48.410;9.054;2022-07-23T00:26:56;96240.50;;;23.28;100.00
2397;BME280;1209;48.410;9.054;2022-07-23T00:29:21;96239.41;;;23.23;100.00
2397;BME280;1209;48.410;9.054;2022-07-23T00:31:46;96250.31;;;23.22;100.00
2397;BME280;1209;48.410;9.054;2022-07-23T00:34:12;96259.16;;;23.28;100.00
2397;BME280;1209;48.410;9.054;2022-07-23T00:36:37;96250.69;;;23.04;100.00
2397;BME280;1209;48.410;9.054;2022-07-23T00:39:03;96257.88;;;23.03;100.00
2397;BME280;1209;48.410;9.054;2022-07-23T00:41:28;96254.31;;;23.19;100.00
2397;BME280;1209;48.410;9.054;2022-07-23T00:43:54;96257.16;;;23.13;100.00
2397;BME280;1209;48.410;9.054;2022-07-23T00:46:22;96264.38;;;23.17;100.00
2397;BME280;1209;48.410;9.054;2022-07-23T00:48:48;96275.56;;;23.14;100.00
2397;BME280;1209;48.410;9.054;2022-07-23T00:51:17;96282.09;;;23.29;100.00
2397;BME280;1209;48.410;9.054;2022-07-23T00:53:43;96279.09;;;23.20;100.00
2397;BME280;1209;48.410;9.054;2022-07-23T00:56:10;96289.44;;;23.16;100.00
2397;BME280;1209;48.410;9.054;2022-07-23T00:58:35;96278.47;;;22.81;100.00
2397;BME280;1209;48.410;9.054;2022-07-23T01:01:01;96281.47;;;22.68;100.00
2397;BME280;1209;48.410;9.054;2022-07-23T01:03:27;96287.41;;;22.75;100.00
2397;BME280;1209;48.410;9.054;2022-07-23T01:05:53;96303.22;;;22.81;100.00
2397;BME280;1209;48.410;9.054;2022-07-23T01:08:18;96289.28;;;22.74;100.00
2397;BME280;1209;48.410;9.054;2022-07-23T01:10:43;96288.94;;;22.92;100.00
2397;BME280;1209;48.410;9.054;2022-07-23T01:13:09;96293.69;;;22.85;100.00
2397;BME280;1209;48.410;9.054;2022-07-23T01:15:36;96277.31;;;23.04;100.00
2397;BME280;1209;48.410;9.054;2022-07-23T01:18:03;96269.69;;;23.12;100.00
2397;BME280;1209;48.410;9.054;2022-07-23T01:20:29;96265.06;;;23.03;100.00
2397;BME280;1209;48.410;9.054;2022-07-23T01:22:55;96250.69;;;23.04;100.00
2397;BME280;1209;48.410;9.054;2022-07-23T01:25:21;96232.75;;;22.94;100.00
2397;BME280;1209;48.410;9.054;2022-07-23T01:27:47;96219.78;;;22.76;100.00
2397;BME280;1209;48.410;9.054;2022-07-23T01:30:13;96204.25;;;22.68;100.00
2397;BME280;1209;48.410;9.054;2022-07-23T01:32:38;96181.53;;;22.60;100.00
2397;BME280;1209;48.410;9.054;2022-07-23T01:35:04;96164.09;;;22.42;100.00
2397;BME280;1209;48.410;9.054;2022-07-23T01:37:30;96164.34;;;22.41;100.00
2397;BME280;1209;48.410;9.054;2022-07-23T01:39:55;96161.72;;;22.46;100.00
2397;BME280;1209;48.410;9.054;2022-07-23T01:42:21;96156.41;;;22.46;100.00
2397;BME280;1209;48.410;9.054;2022-07-23T01:44:46;96165.28;;;22.56;100.00
2397;BME280;1209;48.410;9.054;2022-07-23T01:47:11;96184.13;;;22.77;100.00
2397;BME280;1209;48.410;9.054;2022-07-23T01:49:37;96180.13;;;22.79;100.00
2397;BME280;1209;48.410;9.054;2022-07-23T01:52:03;96165.09;;;22.68;100.00
2397;BME280;1209;48.410;9.054;2022-07-23T01:54:33;96152.47;;;22.80;100.00
2397;BME280;1209;48.410;9.054;2022-07-23T01:56:59;96158.19;;;22.94;100.00
2397;BME280;1209;48.410;9.054;2022-07-23T01:59:25;96164.81;;;22.91;100.00
2397;BME280;1209;48.410;9.054;2022-07-23T02:01:51;96175.75;;;22.95;100.00
2397;BME280;1209;48.410;9.054;2022-07-23T02:04:21;96181.91;;;22.96;100.00
2397;BME280;1209;48.410;9.054;2022-07-23T02:06:46;96185.25;;;22.81;100.00
2397;BME280;1209;48.410;9.054;2022-07-23T02:09:12;96179.41;;;22.84;100.00
2397;BME280;1209;48.410;9.054;2022-07-23T02:11:37;96198.91;;;22.89;100.00
2397;BME280;1209;48.410;9.054;2022-07-23T02:14:03;96220.50;;;22.93;100.00
2397;BME280;1209;48.410;9.054;2022-07-23T02:16:28;96229.75;;;22.85;100.00
2397;BME280;1209;48.410;9.054;2022-07-23T02:18:54;96259.56;;;22.82;100.00
2397;BME280;1209;48.410;9.054;2022-07-23T02:21:19;96255.34;;;22.65;100.00
2397;BME280;1209;48.410;9.054;2022-07-23T02:23:45;96249.91;;;22.54;100.00
2397;BME280;1209;48.410;9.054;2022-07-23T02:26:10;96254.13;;;22.50;100.00
2397;BME280;1209;48.410;9.054;2022-07-23T02:28:35;96267.03;;;22.37;100.00
2397;BME280;1209;48.410;9.054;2022-07-23T02:31:01;96287.69;;;22.29;100.00
2397;BME280;1209;48.410;9.054;2022-07-23T02:33:26;96280.31;;;22.15;100.00
2397;BME280;1209;48.410;9.054;2022-07-23T02:35:51;96287.47;;;21.76;100.00
2397;BME280;1209;48.410;9.054;2022-07-23T02:38:17;96264.50;;;21.69;100.00
2397;BME280;1209;48.410;9.054;2022-07-23T02:40:42;96264.38;;;21.59;100.00
2397;BME280;1209;48.410;9.054;2022-07-23T02:43:07;96268.09;;;21.58;100.00
2397;BME280;1209;48.410;9.054;2022-07-23T02:45:33;96267.34;;;21.63;100.00
2397;BME280;1209;48.410;9.054;2022-07-23T02:47:58;96271.44;;;21.87;100.00
2397;BME280;1209;48.410;9.054;2022-07-23T02:50:24;96281.31;;;21.92;100.00
2397;BME280;1209;48.410;9.054;2022-07-23T02:52:49;96277.19;;;21.62;100.00
2397;BME280;1209;48.410;9.054;2022-07-23T02:55:14;96287.56;;;21.81;100.00
2397;BME280;1209;48.410;9.054;2022-07-23T02:57:40;96294.31;;;21.72;100.00
2397;BME280;1209;48.410;9.054;2022-07-23T03:00:06;96296.03;;;21.78;100.00
2397;BME280;1209;48.410;9.054;2022-07-23T03:02:32;96304.81;;;21.78;100.00
2397;BME280;1209;48.410;9.054;2022-07-23T03:04:58;96311.88;;;21.89;100.00
2397;BME280;1209;48.410;9.054;2022-07-23T03:07:23;96322.25;;;22.08;100.00
2397;BME280;1209;48.410;9.054;2022-07-23T03:09:51;96323.16;;;21.96;100.00
2397;BME280;1209;48.410;9.054;2022-07-23T03:12:16;96322.03;;;21.59;100.00
2397;BME280;1209;48.410;9.054;2022-07-23T03:14:42;96323.41;;;21.61;100.00
2397;BME280;1209;48.410;9.054;2022-07-23T03:17:08;96329.50;;;21.95;100.00
2397;BME280;1209;48.410;9.054;2022-07-23T03:19:33;96333.78;;;21.96;100.00
2397;BME280;1209;48.410;9.054;2022-07-23T03:21:59;96322.19;;;21.69;100.00
2397;BME280;1209;48.410;9.054;2022-07-23T03:24:24;96330.25;;;21.74;100.00
2397;BME280;1209;48.410;9.054;2022-07-23T03:27:09;96309.47;;;21.54;100.00
2397;BME280;1209;48.410;9.054;2022-07-23T03:29:35;96315.28;;;21.85;100.00
2397;BME280;1209;48.410;9.054;2022-07-23T03:32:02;96314.34;;;21.96;100.00
2397;BME280;1209;48.410;9.054;2022-07-23T03:34:28;96312.81;;;22.00;100.00
2397;BME280;1209;48.410;9.054;2022-07-23T03:36:53;96320.91;;;21.88;100.00
2397;BME280;1209;48.410;9.054;2022-07-23T03:39:18;96325.31;;;21.99;100.00
2397;BME280;1209;48.410;9.054;2022-07-23T03:41:44;96331.78;;;22.04;100.00
2397;BME280;1209;48.410;9.054;2022-07-23T03:44:09;96344.50;;;22.02;100.00
2397;BME280;1209;48.410;9.054;2022-07-23T03:46:34;96343.13;;;21.99;100.00
2397;BME280;1209;48.410;9.054;2022-07-23T03:49:00;96335.56;;;21.91;100.00
2397;BME280;1209;48.410;9.054;2022-07-23T03:51:25;96336.63;;;21.90;100.00
2397;BME280;1209;48.410;9.054;2022-07-23T03:53:50;96331.72;;;21.82;100.00
2397;BME280;1209;48.410;9.054;2022-07-23T03:56:16;96337.34;;;21.85;100.00
2397;BME280;1209;48.410;9.054;2022-07-23T03:58:41;96342.44;;;21.87;100.00
2397;BME280;1209;48.410;9.054;2022-07-23T04:01:07;96334.38;;;21.82;100.00
2397;BME280;1209;48.410;9.054;2022-07-23T04:03:32;96335.00;;;21.89;100.00
2397;BME280;1209;48.410;9.054;2022-07-23T04:05:57;96341.63;;;21.86;100.00
2397;BME280;1209;48.410;9.054;2022-07-23T04:08:22;96345.31;;;21.85;100.00
2397;BME280;1209;48.410;9.054;2022-07-23T04:10:48;96336.31;;;21.86;100.00
2397;BME280;1209;48.410;9.054;2022-07-23T04:13:13;96323.16;;;21.63;100.00
2397;BME280;1209;48.410;9.054;2022-07-23T04:15:39;96325.41;;;21.71;100.00
2397;BME280;1209;48.410;9.054;2022-07-23T04:18:04;96327.13;;;21.77;100.00
2397;BME280;1209;48.410;9.054;2022-07-23T04:20:30;96334.50;;;21.75;100.00
2397;BME280;1209;48.410;9.054;2022-07-23T04:22:55;96331.97;;;21.80;100.00
2397;BME280;1209;48.410;9.054;2022-07-23T04:25:21;96339.69;;;21.82;100.00
2397;BME280;1209;48.410;9.054;2022-07-23T04:27:46;96339.13;;;21.63;100.00
2397;BME280;1209;48.410;9.054;2022-07-23T04:30:11;96346.94;;;21.69;100.00
2397;BME280;1209;48.410;9.054;2022-07-23T04:32:37;96346.69;;;21.71;100.00
2397;BME280;1209;48.410;9.054;2022-07-23T04:35:02;96365.72;;;21.80;100.00
2397;BME280;1209;48.410;9.054;2022-07-23T04:37:28;96369.00;;;21.70;100.00
2397;BME280;1209;48.410;9.054;2022-07-23T04:39:53;96375.94;;;21.71;100.00
2397;BME280;1209;48.410;9.054;2022-07-23T04:42:18;96376.72;;;21.72;100.00
2397;BME280;1209;48.410;9.054;2022-07-23T04:44:44;96365.22;;;21.66;100.00
2397;BME280;1209;48.410;9.054;2022-07-23T04:47:09;96367.22;;;21.76;100.00
2397;BME280;1209;48.410;9.054;2022-07-23T04:49:35;96377.72;;;21.82;100.00
2397;BME280;1209;48.410;9.054;2022-07-23T04:52:01;96375.44;;;21.74;100.00
2397;BME280;1209;48.410;9.054;2022-07-23T04:54:27;96353.31;;;21.52;100.00
2397;BME280;1209;48.410;9.054;2022-07-23T04:56:52;96355.72;;;21.70;100.00
2397;BME280;1209;48.410;9.054;2022-07-23T04:59:17;96367.94;;;21.71;100.00
2397;BME280;1209;48.410;9.054;2022-07-23T05:01:43;96366.66;;;21.74;100.00
2397;BME280;1209;48.410;9.054;2022-07-23T05:04:08;96362.50;;;21.78;100.00
2397;BME280;1209;48.410;9.054;2022-07-23T05:06:33;96362.41;;;21.89;100.00
2397;BME280;1209;48.410;9.054;2022-07-23T05:08:59;96367.56;;;21.96;100.00
2397;BME280;1209;48.410;9.054;2022-07-23T05:11:24;96374.41;;;21.92;100.00
2397;BME280;1209;48.410;9.054;2022-07-23T05:13:49;96367.91;;;21.83;100.00
2397;BME280;1209;48.410;9.054;2022-07-23T05:16:15;96368.47;;;21.85;100.00
2397;BME280;1209;48.410;9.054;2022-07-23T05:18:40;96377.47;;;21.67;100.00
2397;BME280;1209;48.410;9.054;2022-07-23T05:21:06;96390.13;;;21.93;100.00
2397;BME280;1209;48.410;9.054;2022-07-23T05:23:31;96391.81;;;21.99;100.00
2397;BME280;1209;48.410;9.054;2022-07-23T05:25:56;96379.16;;;21.90;100.00
2397;BME280;1209;48.410;9.054;2022-07-23T05:28:22;96362.97;;;21.75;100.00
2397;BME280;1209;48.410;9.054;2022-07-23T05:30:47;96355.47;;;22.05;100.00
2397;BME280;1209;48.410;9.054;2022-07-23T05:33:12;96363.09;;;22.18;100.00
2397;BME280;1209;48.410;9.054;2022-07-23T05:35:38;96362.06;;;22.19;100.00
2397;BME280;1209;48.410;9.054;2022-07-23T05:38:03;96355.91;;;22.36;100.00
2397;BME280;1209;48.410;9.054;2022-07-23T05:40:28;96347.72;;;22.42;100.00
2397;BME280;1209;48.410;9.054;2022-07-23T05:42:54;96345.81;;;22.38;100.00
2397;BME280;1209;48.410;9.054;2022-07-23T05:45:19;96352.06;;;22.26;100.00
2397;BME280;1209;48.410;9.054;2022-07-23T05:47:46;96354.28;;;22.56;100.00
2397;BME280;1209;48.410;9.054;2022-07-23T05:50:13;96348.72;;;22.58;100.00
2397;BME280;1209;48.410;9.054;2022-07-23T05:52:39;96348.41;;;22.54;100.00
2397;BME280;1209;48.410;9.054;2022-07-23T05:55:06;96352.75;;;22.60;100.00
2397;BME280;1209;48.410;9.054;2022-07-23T05:57:31;96344.44;;;22.57;100.00
2397;BME280;1209;48.410;9.054;2022-07-23T05:59:57;96335.34;;;22.75;100.00
2397;BME280;1209;48.410;9.054;2022-07-23T06:02:22;96346.19;;;22.90;100.00
2397;BME280;1209;48.410;9.054;2022-07-23T06:04:47;96344.84;;;23.14;100.00
2397;BME280;1209;48.410;9.054;2022-07-23T06:07:13;96337.81;;;23.30;100.00
2397;BME280;1209;48.410;9.054;2022-07-23T06:09:38;96342.72;;;23.43;100.00
2397;BME280;1209;48.410;9.054;2022-07-23T06:12:04;96345.50;;;23.27;100.00
2397;BME280;1209;48.410;9.054;2022-07-23T06:14:29;96337.34;;;23.38;100.00
2397;BME280;1209;48.410;9.054;2022-07-23T06:16:55;96341.03;;;23.64;100.00
2397;BME280;1209;48.410;9.054;2022-07-23T06:19:20;96343.50;;;23.71;100.00
2397;BME280;1209;48.410;9.054;2022-07-23T06:21:45;96336.59;;;23.75;100.00
2397;BME280;1209;48.410;9.054;2022-07-23T06:24:11;96333.66;;;23.71;100.00
2397;BME280;1209;48.410;9.054;2022-07-23T06:26:36;96338.84;;;23.93;100.00
2397;BME280;1209;48.410;9.054;2022-07-23T06:29:02;96339.47;;;24.05;100.00
2397;BME280;1209;48.410;9.054;2022-07-23T06:31:27;96346.53;;;24.27;100.00
2397;BME280;1209;48.410;9.054;2022-07-23T06:33:53;96342.91;;;24.43;100.00
2397;BME280;1209;48.410;9.054;2022-07-23T06:36:22;96343.97;;;24.42;100.00
2397;BME280;1209;48.410;9.054;2022-07-23T06:38:48;96351.44;;;24.40;100.00
2397;BME280;1209;48.410;9.054;2022-07-23T06:41:14;96366.09;;;24.32;100.00
2397;BME280;1209;48.410;9.054;2022-07-23T06:43:44;96359.22;;;24.46;100.00
2397;BME280;1209;48.410;9.054;2022-07-23T06:46:11;96353.03;;;24.41;100.00
2397;BME280;1209;48.410;9.054;2022-07-23T06:48:38;96357.94;;;24.59;100.00
2397;BME280;1209;48.410;9.054;2022-07-23T06:51:04;96356.69;;;24.77;100.00
2397;BME280;1209;48.410;9.054;2022-07-23T06:53:32;96357.75;;;24.81;100.00
2397;BME280;1209;48.410;9.054;2022-07-23T06:55:59;96362.31;;;24.80;100.00
2397;BME280;1209;48.410;9.054;2022-07-23T06:58:26;96359.38;;;24.82;100.00
2397;BME280;1209;48.410;9.054;2022-07-23T07:00:52;96362.06;;;24.97;100.00
2397;BME280;1209;48.410;9.054;2022-07-23T07:03:21;96363.41;;;24.95;100.00
2397;BME280;1209;48.410;9.054;2022-07-23T07:05:47;96368.06;;;25.15;100.00
2397;BME280;1209;48.410;9.054;2022-07-23T07:08:12;96379.03;;;25.28;100.00
2397;BME280;1209;48.410;9.054;2022-07-23T07:11:01;96387.06;;;25.33;100.00
2397;BME280;1209;48.410;9.054;2022-07-23T07:13:27;96394.53;;;25.16;100.00
2397;BME280;1209;48.410;9.054;2022-07-23T07:15:52;96395.88;;;25.29;100.00
2397;BME280;1209;48.410;9.054;2022-07-23T07:18:19;96399.91;;;25.52;100.00
2397;BME280;1209;48.410;9.054;2022-07-23T07:20:45;96398.63;;;25.64;100.00
2397;BME280;1209;48.410;9.054;2022-07-23T07:23:12;96404.22;;;25.63;96.66
2397;BME280;1209;48.410;9.054;2022-07-23T07:25:38;96410.16;;;25.70;100.00
2397;BME280;1209;48.410;9.054;2022-07-23T07:28:05;96405.06;;;25.68;100.00
2397;BME280;1209;48.410;9.054;2022-07-23T07:30:32;96398.31;;;25.51;98.84
2397;BME280;1209;48.410;9.054;2022-07-23T07:33:02;96411.16;;;25.49;100.00
2397;BME280;1209;48.410;9.054;2022-07-23T07:35:31;96398.03;;;25.52;99.66
2397;BME280;1209;48.410;9.054;2022-07-23T07:37:59;96395.41;;;25.57;100.00
2397;BME280;1209;48.410;9.054;2022-07-23T07:40:26;96398.91;;;25.78;100.00
2397;BME280;1209;48.410;9.054;2022-07-23T07:42:55;96406.66;;;25.80;100.00
2397;BME280;1209;48.410;9.054;2022-07-23T07:45:24;96406.94;;;25.83;96.83
2397;BME280;1209;48.410;9.054;2022-07-23T07:47:56;96397.81;;;26.15;98.51
2397;BME280;1209;48.410;9.054;2022-07-23T07:50:23;96415.50;;;26.21;97.21
2397;BME280;1209;48.410;9.054;2022-07-23T07:52:50;96414.97;;;25.93;100.00
2397;BME280;1209;48.410;9.054;2022-07-23T07:55:22;96417.66;;;25.73;100.00
2397;BME280;1209;48.410;9.054;2022-07-23T07:57:48;96418.97;;;25.70;99.71
2397;BME280;1209;48.410;9.054;2022-07-23T08:00:13;96429.41;;;25.67;100.00
2397;BME280;1209;48.410;9.054;2022-07-23T08:02:43;96423.75;;;25.63;100.00
2397;BME280;1209;48.410;9.054;2022-07-23T08:05:09;96425.38;;;25.59;100.00
2397;BME280;1209;48.410;9.054;2022-07-23T08:07:35;96434.41;;;25.48;100.00
2397;BME280;1209;48.410;9.054;2022-07-23T08:10:02;96440.81;;;25.42;100.00
2397;BME280;1209;48.410;9.054;2022-07-23T08:12:28;96436.06;;;25.54;100.00
2397;BME280;1209;48.410;9.054;2022-07-23T08:14:53;96435.53;;;25.57;100.00
2397;BME280;1209;48.410;9.054;2022-07-23T08:17:18;96434.19;;;25.65;100.00
2397;BME280;1209;48.410;9.054;2022-07-23T08:19:44;96437.19;;;25.73;100.00
2397;BME280;1209;48.410;9.054;2022-07-23T08:22:09;96436.66;;;25.82;100.00
2397;BME280;1209;48.410;9.054;2022-07-23T08:24:34;96429.16;;;25.89;100.00
2397;BME280;1209;48.410;9.054;2022-07-23T08:27:00;96433.69;;;25.98;100.00
2397;BME280;1209;48.410;9.054;2022-07-23T08:29:25;96429.97;;;26.04;100.00
2397;BME280;1209;48.410;9.054;2022-07-23T08:31:50;96445.75;;;26.21;100.00
2397;BME280;1209;48.410;9.054;2022-07-23T08:34:16;96434.25;;;26.06;98.27
2397;BME280;1209;48.410;9.054;2022-07-23T08:36:41;96438.53;;;26.07;99.51
2397;BME280;1209;48.410;9.054;2022-07-23T08:39:06;96444.13;;;25.90;100.00
2397;BME280;1209;48.410;9.054;2022-07-23T08:41:32;96442.00;;;25.77;99.51
2397;BME280;1209;48.410;9.054;2022-07-23T08:43:59;96444.66;;;25.92;100.00
2397;BME280;1209;48.410;9.054;2022-07-23T08:46:26;96447.88;;;25.89;100.00
2397;BME280;1209;48.410;9.054;2022-07-23T08:48:51;96445.22;;;25.94;100.00
2397;BME280;1209;48.410;9.054;2022-07-23T08:51:18;96446.56;;;26.01;100.00
2397;BME280;1209;48.410;9.054;2022-07-23T08:53:44;96439.06;;;26.14;98.25
2397;BME280;1209;48.410;9.054;2022-07-23T08:56:10;96440.13;;;26.28;100.00
2397;BME280;1209;48.410;9.054;2022-07-23T08:58:35;96425.66;;;26.39;96.43
2397;BME280;1209;48.410;9.054;2022-07-23T09:01:01;96416.31;;;26.11;100.00
2397;BME280;1209;48.410;9.054;2022-07-23T09:03:29;96413.06;;;26.50;96.79
2397;BME280;1209;48.410;9.054;2022-07-23T09:05:55;96401.28;;;26.51;95.55
2397;BME280;1209;48.410;9.054;2022-07-23T09:08:34;96407.34;;;26.77;96.30
2397;BME280;1209;48.410;9.054;2022-07-23T09:11:02;96413.16;;;27.09;94.80
2397;BME280;1209;48.410;9.054;2022-07-23T09:13:36;96424.00;;;27.33;93.02
2397;BME280;1209;48.410;9.054;2022-07-23T09:16:14;96424.06;;;27.23;92.00
2397;BME280;1209;48.410;9.054;2022-07-23T09:18:50;96427.41;;;27.00;94.01
2397;BME280;1209;48.410;9.054;2022-07-23T09:21:17;96431.47;;;26.72;96.54
2397;BME280;1209;48.410;9.054;2022-07-23T09:24:16;96427.25;;;26.50;100.00
2397;BME280;1209;48.410;9.054;2022-07-23T09:26:41;96424.84;;;26.59;100.00
2397;BME280;1209;48.410;9.054;2022-07-23T09:29:12;96425.56;;;26.80;100.00
2397;BME280;1209;48.410;9.054;2022-07-23T09:32:04;96424.38;;;27.16;96.94
2397;BME280;1209;48.410;9.054;2022-07-23T09:34:34;96430.78;;;27.20;97.90
2397;BME280;1209;48.410;9.054;2022-07-23T09:37:14;96420.75;;;26.72;100.00
2397;BME280;1209;48.410;9.054;2022-07-23T09:39:41;96419.22;;;26.55;100.00
2397;BME280;1209;48.410;9.054;2022-07-23T09:42:25;96423.63;;;26.90;98.83
2397;BME280;1209;48.410;9.054;2022-07-23T09:44:52;96422.66;;;26.71;100.00
2397;BME280;1209;48.410;9.054;2022-07-23T09:47:20;96426.34;;;27.01;98.75
2397;BME280;1209;48.410;9.054;2022-07-23T09:49:58;96423.13;;;26.99;100.00
2397;BME280;1209;48.410;9.054;2022-07-23T09:52:29;96423.84;;;27.64;96.60
2397;BME280;1209;48.410;9.054;2022-07-23T09:55:03;96419.13;;;27.84;91.10
2397;BME280;1209;48.410;9.054;2022-07-23T09:57:29;96419.78;;;27.71;93.56
2397;BME280;1209;48.410;9.054;2022-07-23T09:59:58;96406.66;;;27.65;92.27
2397;BME280;1209;48.410;9.054;2022-07-23T10:02:25;96409.34;;;27.65;99.81
2397;BME280;1209;48.410;9.054;2022-07-23T10:04:54;96405.84;;;27.69;95.50
2397;BME280;1209;48.410;9.054;2022-07-23T10:07:22;96413.66;;;27.60;97.27
2397;BME280;1209;48.410;9.054;2022-07-23T10:09:50;96414.53;;;28.24;94.45
2397;BME280;1209;48.410;9.054;2022-07-23T10:12:19;96420.06;;;28.62;87.80
2397;BME280;1209;48.410;9.054;2022-07-23T10:14:45;96425.00;;;28.55;88.72
2397;BME280;1209;48.410;9.054;2022-07-23T10:17:11;96427.56;;;28.41;85.92
2397;BME280;1209;48.410;9.054;2022-07-23T10:19:36;96420.72;;;28.25;84.32
2397;BME280;1209;48.410;9.054;2022-07-23T10:22:10;96420.63;;;28.01;89.85
2397;BME280;1209;48.410;9.054;2022-07-23T10:27:54;96421.50;;;28.25;85.92
2397;BME280;1209;48.410;9.054;2022-07-23T10:30:59;96432.03;;;28.50;84.77
2397;BME280;1209;48.410;9.054;2022-07-23T10:33:32;96422.69;;;28.43;87.75
2397;BME280;1209;48.410;9.054;2022-07-23T10:36:18;96416.84;;;28.36;87.04
2397;BME280;1209;48.410;9.054;2022-07-23T10:38:51;96420.25;;;28.12;85.53
2397;BME280;1209;48.410;9.054;2022-07-23T10:41:31;96412.91;;;27.94;87.59
2397;BME280;1209;48.410;9.054;2022-07-23T10:44:10;96418.47;;;28.32;86.51
2397;BME280;1209;48.410;9.054;2022-07-23T10:46:56;96418.53;;;28.79;86.93
2397;BME280;1209;48.410;9.054;2022-07-23T10:49:41;96412.88;;;28.57;87.06
2397;BME280;1209;48.410;9.054;2022-07-23T10:54:50;96421.47;;;27.96;88.24
2397;BME280;1209;48.410;9.054;2022-07-23T10:57:17;96419.41;;;27.83;88.26
2397;BME280;1209;48.410;9.054;2022-07-23T11:02:35;96411.88;;;27.41;94.83
2397;BME280;1209;48.410;9.054;2022-07-23T11:05:06;96422.91;;;27.39;91.98
2397;BME280;1209;48.410;9.054;2022-07-23T11:07:32;96416.28;;;27.26;92.76
2397;BME280;1209;48.410;9.054;2022-07-23T11:09:58;96425.97;;;27.17;92.51
2397;BME280;1209;48.410;9.054;2022-07-23T11:15:11;96424.69;;;27.54;95.33
2397;BME280;1209;48.410;9.054;2022-07-23T11:25:12;96429.53;;;29.26;80.73
2397;BME280;1209;48.410;9.054;2022-07-23T11:27:40;96428.53;;;29.22;79.63
2397;BME280;1209;48.410;9.054;2022-07-23T11:30:11;96428.00;;;29.43;83.87
2397;BME280;1209;48.410;9.054;2022-07-23T11:35:37;96433.19;;;29.16;81.21
2397;BME280;1209;48.410;9.054;2022-07-23T11:38:22;96424.94;;;29.50;81.55
2397;BME280;1209;48.410;9.054;2022-07-23T11:40:52;96428.38;;;29.32;75.36
2397;BME280;1209;48.410;9.054;2022-07-23T11:43:21;96419.53;;;28.83;81.64
2397;BME280;1209;48.410;9.054;2022-07-23T11:45:49;96416.25;;;28.44;80.25
2397;BME280;1209;48.410;9.054;2022-07-23T11:48:22;96406.88;;;28.07;81.24
2397;BME280;1209;48.410;9.054;2022-07-23T11:50:49;96408.75;;;28.07;81.74
2397;BME280;1209;48.410;9.054;2022-07-23T11:53:25;96420.66;;;28.30;81.32
2397;BME280;1209;48.410;9.054;2022-07-23T11:55:51;96417.47;;;28.22;84.85
2397;BME280;1209;48.410;9.054;2022-07-23T11:58:17;96411.22;;;28.03;82.14
2397;BME280;1209;48.410;9.054;2022-07-23T12:00:42;96404.59;;;27.90;82.45
2397;BME280;1209;48.410;9.054;2022-07-23T12:03:08;96411.19;;;27.69;83.22
2397;BME280;1209;48.410;9.054;2022-07-23T12:05:35;96409.41;;;27.54;83.24
2397;BME280;1209;48.410;9.054;2022-07-23T12:08:04;96408.91;;;27.42;85.88
2397;BME280;1209;48.410;9.054;2022-07-23T12:13:08;96412.72;;;27.36;86.76
2397;BME280;1209;48.410;9.054;2022-07-23T12:15:56;96411.59;;;27.47;89.23
2397;BME280;1209;48.410;9.054;2022-07-23T12:18:26;96409.38;;;27.99;85.14
2397;BME280;1209;48.410;9.054;2022-07-23T12:20:54;96403.34;;;28.12;86.49
2397;BME280;1209;48.410;9.054;2022-07-23T12:23:25;96404.25;;;28.02;83.26
2397;BME280;1209;48.410;9.054;2022-07-23T12:25:51;96402.22;;;28.47;82.51
2397;BME280;1209;48.410;9.054;2022-07-23T12:28:31;96395.78;;;28.96;79.61
2397;BME280;1209;48.410;9.054;2022-07-23T12:31:03;96395.47;;;29.59;75.68
2397;BME280;1209;48.410;9.054;2022-07-23T12:33:33;96400.06;;;30.10;70.54
2397;BME280;1209;48.410;9.054;2022-07-23T12:36:01;96398.38;;;30.74;72.45
2397;BME280;1209;48.410;9.054;2022-07-23T12:38:35;96403.34;;;31.08;71.54
2397;BME280;1209;48.410;9.054;2022-07-23T12:41:01;96398.38;;;31.01;69.60
2397;BME280;1209;48.410;9.054;2022-07-23T12:43:32;96395.97;;;30.12;73.11
2397;BME280;1209;48.410;9.054;2022-07-23T12:48:33;96400.69;;;29.88;71.34
2397;BME280;1209;48.410;9.054;2022-07-23T12:51:24;96400.88;;;29.16;71.50
2397;BME280;1209;48.410;9.054;2022-07-23T12:53:52;96403.38;;;29.31;74.61
2397;BME280;1209;48.410;9.054;2022-07-23T12:56:22;96403.91;;;29.52;71.50
2397;BME280;1209;48.410;9.054;2022-07-23T12:58:55;96407.34;;;29.58;72.34
2397;BME280;1209;48.410;9.054;2022-07-23T13:06:20;96404.00;;;29.98;69.33
2397;BME280;1209;48.410;9.054;2022-07-23T13:08:46;96407.31;;;29.76;70.06
2397;BME280;1209;48.410;9.054;2022-07-23T13:11:11;96405.19;;;29.17;73.49
2397;BME280;1209;48.410;9.054;2022-07-23T13:13:36;96409.19;;;29.20;81.71
2397;BME280;1209;48.410;9.054;2022-07-23T13:16:02;96407.28;;;29.20;71.58
2397;BME280;1209;48.410;9.054;2022-07-23T13:18:28;96402.63;;;29.07;73.89
2397;BME280;1209;48.410;9.054;2022-07-23T13:20:55;96412.72;;;28.96;75.84
2397;BME280;1209;48.410;9.054;2022-07-23T13:23:21;96417.38;;;28.91;73.98
2397;BME280;1209;48.410;9.054;2022-07-23T13:25:47;96424.88;;;29.12;73.05
2397;BME280;1209;48.410;9.054;2022-07-23T13:28:14;96405.59;;;29.48;73.27
2397;BME280;1209;48.410;9.054;2022-07-23T13:30:40;96418.59;;;29.41;73.40
2397;BME280;1209;48.410;9.054;2022-07-23T13:33:06;96416.72;;;29.60;72.34
2397;BME280;1209;48.410;9.054;2022-07-23T13:35:33;96413.81;;;29.57;69.90
2397;BME280;1209;48.410;9.054;2022-07-23T13:37:59;96413.28;;;29.36;70.07
2397;BME280;1209;48.410;9.054;2022-07-23T13:40:25;96412.06;;;28.86;73.48
2397;BME280;1209;48.410;9.054;2022-07-23T13:42:50;96418.50;;;28.84;73.12
2397;BME280;1209;48.410;9.054;2022-07-23T13:45:16;96411.47;;;28.89;71.46
2397;BME280;1209;48.410;9.054;2022-07-23T13:47:41;96417.16;;;28.82;72.57